createdAt,value
2018-04-19T00:00:11.151Z,63.03
2018-04-19T00:00:51.544Z,63.13
2018-04-19T00:01:31.942Z,63.03
2018-04-19T00:02:12.352Z,63.03
2018-04-19T00:02:52.736Z,62.93
2018-04-19T00:03:33.145Z,63.51
2018-04-19T00:04:13.504Z,63.32
2018-04-19T00:04:53.937Z,63.42
2018-04-19T00:05:34.328Z,63.42
2018-04-19T00:06:14.703Z,63.32
2018-04-19T00:06:55.137Z,63.32
2018-04-19T00:07:35.523Z,63.51
2018-04-19T00:08:15.944Z,63.03
2018-04-19T00:08:56.312Z,63.7
2018-04-19T00:09:36.758Z,63.6
2018-04-19T00:10:17.166Z,63.6
2018-04-19T00:10:57.547Z,63.42
2018-04-19T00:11:37.938Z,63.6
2018-04-19T00:12:18.299Z,63.51
2018-04-19T00:12:58.781Z,63.6
2018-04-19T00:13:39.139Z,64.09
2018-04-19T00:14:19.593Z,64.18
2018-04-19T00:14:59.938Z,63.8
2018-04-19T00:15:40.389Z,63.8
2018-04-19T00:16:20.756Z,63.7
2018-04-19T00:17:01.086Z,63.89
2018-04-19T00:17:41.632Z,63.7
2018-04-19T00:18:21.972Z,63.89
2018-04-19T00:19:02.284Z,63.51
2018-04-19T00:19:42.673Z,63.89
2018-04-19T00:20:23.109Z,63.99
2018-04-19T00:21:03.462Z,64.05
2018-04-19T00:21:43.860Z,64.18
2018-04-19T00:22:24.247Z,63.96
2018-04-19T00:23:04.650Z,63.96
2018-04-19T00:23:45.124Z,64.25
2018-04-19T00:24:25.479Z,64.34
2018-04-19T00:25:05.849Z,64.53
2018-04-19T00:25:46.306Z,64.72
2018-04-19T00:26:26.694Z,64.53
2018-04-19T00:27:07.099Z,64.43
2018-04-19T00:27:47.508Z,64.43
2018-04-19T00:28:27.831Z,64.43
2018-04-19T00:29:08.212Z,64.82
2018-04-19T00:29:48.716Z,64.92
2018-04-19T00:30:29.089Z,64.82
2018-04-19T00:31:09.541Z,65.01
2018-04-19T00:31:49.928Z,64.92
2018-04-19T00:32:30.298Z,65.39
2018-04-19T00:33:10.675Z,64.92
2018-04-19T00:33:51.155Z,65.3
2018-04-19T00:34:31.510Z,65.2
2018-04-19T00:35:11.897Z,64.92
2018-04-19T00:35:52.368Z,65.2
2018-04-19T00:36:32.763Z,65.2
2018-04-19T00:37:13.123Z,65.3
2018-04-19T00:37:53.510Z,65.39
2018-04-19T00:38:33.999Z,65.58
2018-04-19T00:39:14.355Z,65.58
2018-04-19T00:39:54.762Z,65.39
2018-04-19T00:40:35.165Z,65.39
2018-04-19T00:41:15.579Z,65.49
2018-04-19T00:41:55.939Z,65.39
2018-04-19T00:42:36.366Z,65.58
2018-04-19T00:43:16.807Z,65.39
2018-04-19T00:43:57.148Z,65.68
2018-04-19T00:44:37.638Z,65.49
2018-04-19T00:45:17.988Z,65.49
2018-04-19T00:45:58.401Z,65.39
2018-04-19T00:46:38.791Z,65.49
2018-04-19T00:47:19.218Z,65.39
2018-04-19T00:47:59.690Z,65.3
2018-04-19T00:48:40.030Z,65.3
2018-04-19T00:49:20.389Z,65.3
2018-04-19T00:50:00.913Z,64.92
2018-04-19T00:50:41.221Z,64.92
2018-04-19T00:51:21.644Z,64.92
2018-04-19T00:52:02.020Z,64.92
2018-04-19T00:52:42.455Z,65.11
2018-04-19T00:53:22.851Z,65.11
2018-04-19T00:54:03.314Z,64.92
2018-04-19T00:54:43.677Z,65.11
2018-04-19T00:55:24.014Z,64.82
2018-04-19T00:56:04.415Z,64.82
2018-04-19T00:56:44.839Z,64.92
2018-04-19T00:57:25.227Z,65.11
2018-04-19T00:58:05.650Z,65.3
2018-04-19T00:58:46.057Z,65.11
2018-04-19T00:59:26.438Z,65.3
2018-04-19T01:00:06.821Z,65.39
2018-04-19T01:00:47.227Z,66.06
2018-04-19T01:01:27.629Z,65.88
2018-04-19T01:02:08.045Z,66.25
2018-04-19T01:02:48.500Z,65.97
2018-04-19T01:03:28.936Z,66.06
2018-04-19T01:04:09.312Z,65.88
2018-04-19T01:04:49.750Z,65.68
2018-04-19T01:05:30.107Z,65.36
2018-04-19T01:06:10.640Z,65.36
2018-04-19T01:06:50.988Z,65.39
2018-04-19T01:07:31.431Z,65.36
2018-04-19T01:08:11.852Z,65.26
2018-04-19T01:08:52.259Z,65.36
2018-04-19T01:09:32.687Z,65.94
2018-04-19T01:10:13.221Z,66.61
2018-04-19T01:10:53.616Z,66.61
2018-04-19T01:11:33.985Z,66.51
2018-04-19T01:12:14.405Z,66.13
2018-04-19T01:12:54.825Z,65.94
2018-04-19T01:13:35.351Z,65.94
2018-04-19T01:14:15.652Z,65.94
2018-04-19T01:14:56.147Z,65.74
2018-04-19T01:15:36.577Z,65.94
2018-04-19T01:16:17.025Z,66.22
2018-04-19T01:16:57.353Z,66.13
2018-04-19T01:17:37.787Z,65.94
2018-04-19T01:18:18.188Z,66.13
2018-04-19T01:18:58.552Z,66.03
2018-04-19T01:19:38.957Z,66.22
2018-04-19T01:20:19.336Z,65.84
2018-04-19T01:20:59.775Z,65.84
2018-04-19T01:21:40.113Z,65.94
2018-04-19T01:22:20.587Z,65.94
2018-04-19T01:23:00.942Z,66.13
2018-04-19T01:23:41.354Z,66.13
2018-04-19T01:24:21.696Z,66.51
2018-04-19T01:25:02.098Z,66.32
2018-04-19T01:25:42.465Z,66.51
2018-04-19T01:26:22.863Z,66.41
2018-04-19T01:27:03.357Z,66.32
2018-04-19T01:27:43.739Z,66.32
2018-04-19T01:28:24.043Z,66.41
2018-04-19T01:29:04.508Z,66.41
2018-04-19T01:29:44.871Z,66.32
2018-04-19T01:30:25.279Z,66.22
2018-04-19T01:31:05.684Z,66.22
2018-04-19T01:31:46.013Z,66.32
2018-04-19T01:32:26.505Z,66.51
2018-04-19T01:33:06.881Z,66.22
2018-04-19T01:33:47.295Z,66.13
2018-04-19T01:34:27.693Z,65.94
2018-04-19T01:35:08.069Z,66.22
2018-04-19T01:35:48.445Z,66.13
2018-04-19T01:36:28.854Z,65.84
2018-04-19T01:37:09.249Z,66.51
2018-04-19T01:37:49.632Z,66.32
2018-04-19T01:39:36.960Z,66.7
2018-04-19T01:40:17.325Z,66.61
2018-04-19T01:40:57.817Z,66.41
2018-04-19T01:41:38.134Z,66.32
2018-04-19T01:42:18.490Z,67.27
2018-04-19T01:42:58.915Z,66.89
2018-04-19T01:43:39.344Z,66.99
2018-04-19T01:44:19.768Z,66.89
2018-04-19T01:45:00.120Z,67.08
2018-04-19T01:45:40.502Z,66.99
2018-04-19T01:46:20.861Z,66.89
2018-04-19T01:47:01.274Z,67.18
2018-04-19T01:47:41.621Z,66.7
2018-04-19T01:48:22.067Z,67.37
2018-04-19T01:49:02.440Z,66.89
2018-04-19T01:49:42.834Z,67.08
2018-04-19T01:50:23.271Z,67.27
2018-04-19T01:51:03.740Z,67.27
2018-04-19T01:51:44.128Z,67.94
2018-04-19T01:52:24.547Z,67.66
2018-04-19T01:53:04.860Z,67.94
2018-04-19T01:53:45.259Z,67.66
2018-04-19T01:54:25.637Z,67.76
2018-04-19T01:55:06.068Z,67.76
2018-04-19T01:55:46.421Z,67.63
2018-04-19T01:56:26.770Z,67.72
2018-04-19T01:57:07.133Z,68.2
2018-04-19T01:57:47.620Z,68.23
2018-04-19T01:58:27.974Z,68.1
2018-04-19T01:59:08.331Z,68.01
2018-04-19T01:59:48.788Z,68.01
2018-04-19T02:00:29.091Z,68.2
2018-04-19T02:01:09.495Z,68.39
2018-04-19T02:01:49.932Z,68.2
2018-04-19T02:02:30.279Z,68.2
2018-04-19T02:04:27.805Z,68.87
2018-04-19T02:05:08.053Z,68.87
2018-04-19T02:05:48.489Z,68.77
2018-04-19T02:06:28.876Z,68.77
2018-04-19T02:07:09.383Z,68.96
2018-04-19T02:07:49.683Z,68.68
2018-04-19T02:08:30.138Z,68.77
2018-04-19T02:09:10.517Z,68.68
2018-04-19T02:09:50.887Z,68.68
2018-04-19T02:10:31.264Z,68.77
2018-04-19T02:11:11.665Z,68.77
2018-04-19T02:11:52.077Z,69.06
2018-04-19T02:12:32.528Z,69.15
2018-04-19T02:13:12.886Z,68.77
2018-04-19T02:13:53.311Z,68.68
2018-04-19T02:14:33.744Z,68.87
2018-04-19T02:15:14.157Z,68.96
2018-04-19T02:15:54.544Z,69.06
2018-04-19T02:16:34.967Z,68.68
2018-04-19T02:17:15.383Z,68.96
2018-04-19T02:17:55.799Z,68.58
2018-04-19T02:18:36.198Z,68.58
2018-04-19T02:19:16.547Z,68.58
2018-04-19T02:19:56.990Z,69.06
2018-04-19T02:20:37.318Z,69.25
2018-04-19T02:21:17.763Z,68.49
2018-04-19T02:21:58.149Z,68.96
2018-04-19T02:22:38.508Z,69.25
2018-04-19T02:23:18.993Z,68.96
2018-04-19T02:23:59.324Z,68.96
2018-04-19T02:24:39.663Z,69.25
2018-04-19T02:25:20.087Z,68.68
2018-04-19T02:26:00.461Z,69.25
2018-04-19T02:26:40.858Z,68.96
2018-04-19T02:27:21.356Z,68.68
2018-04-19T02:28:01.682Z,68.68
2018-04-19T02:28:42.089Z,69.06
2018-04-19T02:29:22.512Z,68.96
2018-04-19T02:30:02.911Z,68.49
2018-04-19T02:30:43.348Z,68.96
2018-04-19T02:31:23.727Z,68.96
2018-04-19T02:32:04.141Z,68.96
2018-04-19T02:32:44.550Z,69.06
2018-04-19T02:33:24.891Z,69.06
2018-04-19T02:34:05.335Z,69.15
2018-04-19T02:34:45.703Z,69.06
2018-04-19T02:35:26.206Z,69.25
2018-04-19T02:36:06.561Z,69.54
2018-04-19T02:36:47.081Z,69.44
2018-04-19T02:37:27.340Z,69.35
2018-04-19T02:38:07.801Z,69.15
2018-04-19T02:38:48.214Z,69.44
2018-04-19T02:39:28.571Z,69.73
2018-04-19T02:40:09.100Z,69.64
2018-04-19T02:40:49.511Z,69.82
2018-04-19T02:41:29.879Z,69.82
2018-04-19T02:42:10.320Z,69.35
2018-04-19T02:42:50.734Z,69.82
2018-04-19T02:43:31.134Z,69.64
2018-04-19T02:44:11.446Z,69.64
2018-04-19T02:44:51.910Z,69.82
2018-04-19T02:45:32.308Z,69.92
2018-04-19T02:46:12.704Z,69.44
2018-04-19T02:46:53.093Z,69.82
2018-04-19T02:47:33.554Z,69.82
2018-04-19T02:48:13.876Z,69.82
2018-04-19T02:48:54.291Z,69.82
2018-04-19T02:49:34.739Z,69.82
2018-04-19T02:50:15.047Z,70.11
2018-04-19T02:50:55.530Z,70.11
2018-04-19T02:51:35.854Z,69.92
2018-04-19T02:53:29.235Z,70.4
2018-04-19T02:54:09.652Z,70.36
2018-04-19T02:54:50.016Z,70.27
2018-04-19T02:55:30.439Z,70.75
2018-04-19T02:56:10.856Z,70.65
2018-04-19T02:56:51.216Z,71.03
2018-04-19T02:57:31.607Z,71.32
2018-04-19T02:58:12.054Z,70.94
2018-04-19T02:58:52.482Z,71.03
2018-04-19T02:59:32.902Z,71.03
2018-04-19T03:00:13.319Z,70.84
2018-04-19T03:00:53.686Z,71.22
2018-04-19T03:01:34.084Z,71.22
2018-04-19T03:02:14.490Z,71.03
2018-04-19T03:02:54.906Z,71.8
2018-04-19T03:03:35.328Z,71.7
2018-04-19T03:04:15.701Z,71.32
2018-04-19T03:04:56.132Z,71.8
2018-04-19T03:05:36.580Z,71.8
2018-04-19T03:06:16.927Z,71.89
2018-04-19T03:06:57.321Z,71.51
2018-04-19T03:07:37.715Z,71.7
2018-04-19T03:08:18.127Z,71.8
2018-04-19T03:08:58.625Z,71.99
2018-04-19T03:09:38.961Z,71.61
2018-04-19T03:10:19.437Z,71.61
2018-04-19T03:10:59.869Z,72.08
2018-04-19T03:11:40.216Z,71.8
2018-04-19T03:12:20.646Z,71.61
2018-04-19T03:13:01.049Z,71.7
2018-04-19T03:13:41.437Z,71.51
2018-04-19T03:14:21.837Z,71.51
2018-04-19T03:15:02.263Z,71.7
2018-04-19T03:15:42.720Z,71.99
2018-04-19T03:16:23.070Z,72.28
2018-04-19T03:17:03.524Z,71.61
2018-04-19T03:17:43.980Z,71.8
2018-04-19T03:18:24.375Z,72.47
2018-04-19T03:19:04.759Z,71.99
2018-04-19T03:19:45.119Z,71.51
2018-04-19T03:20:25.627Z,72.18
2018-04-19T03:21:05.868Z,72.08
2018-04-19T03:21:46.356Z,71.89
2018-04-19T03:22:26.646Z,72.08
2018-04-19T03:23:07.086Z,72.47
2018-04-19T03:23:47.599Z,71.99
2018-04-19T03:24:27.916Z,71.8
2018-04-19T03:25:08.448Z,71.99
2018-04-19T03:25:48.747Z,71.7
2018-04-19T03:26:29.204Z,71.8
2018-04-19T03:27:09.555Z,71.99
2018-04-19T03:27:49.999Z,71.89
2018-04-19T03:28:30.333Z,72.08
2018-04-19T03:29:10.746Z,70.94
2018-04-19T03:29:51.149Z,71.13
2018-04-19T03:30:31.597Z,71.03
2018-04-19T03:31:12.091Z,71.8
2018-04-19T03:31:52.376Z,71.32
2018-04-19T03:32:32.782Z,71.8
2018-04-19T03:33:13.360Z,71.51
2018-04-19T03:33:53.653Z,71.99
2018-04-19T03:34:33.969Z,71.8
2018-04-19T03:35:14.416Z,71.8
2018-04-19T03:35:54.839Z,71.99
2018-04-19T03:36:35.307Z,72.18
2018-04-19T03:37:15.749Z,71.99
2018-04-19T03:37:56.178Z,71.8
2018-04-19T03:38:36.460Z,71.42
2018-04-19T03:39:16.815Z,71.7
2018-04-19T03:39:57.310Z,71.7
2018-04-19T03:40:37.749Z,71.03
2018-04-19T03:41:18.203Z,71.03
2018-04-19T03:41:58.563Z,71.03
2018-04-19T03:42:38.914Z,70.94
2018-04-19T03:43:19.321Z,70.78
2018-04-19T03:43:59.850Z,70.65
2018-04-19T03:44:40.074Z,70.94
2018-04-19T03:45:20.493Z,70.87
2018-04-19T03:46:00.984Z,70.27
2018-04-19T03:46:41.347Z,70.65
2018-04-19T03:47:21.726Z,70.4
2018-04-19T03:48:02.171Z,70.59
2018-04-19T03:48:42.554Z,70.87
2018-04-19T03:49:23.003Z,70.01
2018-04-19T03:50:03.458Z,70.59
2018-04-19T03:50:43.883Z,69.82
2018-04-19T03:51:24.251Z,70.21
2018-04-19T03:52:04.700Z,70.59
2018-04-19T03:52:45.107Z,70.59
2018-04-19T03:53:25.571Z,70.59
2018-04-19T03:54:05.891Z,70.68
2018-04-19T03:54:46.335Z,70.56
2018-04-19T03:55:26.778Z,70.3
2018-04-19T03:56:07.261Z,70.75
2018-04-19T03:56:47.608Z,70.56
2018-04-19T03:57:28.038Z,70.5
2018-04-19T03:58:08.584Z,70.94
2018-04-19T03:58:48.977Z,70.56
2018-04-19T03:59:29.319Z,70.46
2018-04-19T04:00:09.789Z,71.03
2018-04-19T04:00:50.139Z,70.75
2018-04-19T04:01:30.571Z,70.65
2018-04-19T04:02:11.071Z,70.94
2018-04-19T04:02:51.469Z,71.22
2018-04-19T04:41:02.457Z,78.47
2018-04-19T04:41:42.525Z,78.75
2018-04-19T04:42:22.829Z,78.85
2018-04-19T04:43:03.291Z,78.85
2018-04-19T04:43:43.643Z,78.94
2018-04-19T04:44:24.115Z,78.47
2018-04-19T04:45:04.561Z,78.56
2018-04-19T04:45:45.011Z,78.94
2018-04-19T04:46:25.321Z,78.31
2018-04-19T04:47:05.756Z,78.79
2018-04-19T04:47:46.173Z,78.89
2018-04-19T04:48:26.560Z,78.41
2018-04-19T04:49:07.056Z,78.03
2018-04-19T04:49:47.527Z,77.17
2018-04-19T04:50:27.851Z,77.17
2018-04-19T04:51:08.359Z,77.36
2018-04-19T04:51:48.680Z,77.01
2018-04-19T04:52:29.061Z,76.45
2018-04-19T04:53:09.503Z,75.2
2018-04-19T04:53:50.004Z,75.2
2018-04-19T04:54:30.290Z,74.15
2018-04-19T04:55:10.711Z,73.43
2018-04-19T04:55:51.234Z,72.85
2018-04-19T04:56:31.494Z,72.28
2018-04-19T04:57:12.141Z,72.37
2018-04-19T04:57:52.456Z,71.03
2018-04-19T04:58:32.913Z,70.78
2018-04-19T04:59:13.265Z,70.5
2018-04-19T04:59:53.664Z,69.82
2018-04-19T05:00:34.117Z,69.64
2018-04-19T05:01:14.585Z,69.35
2018-04-19T05:01:54.930Z,68.71
2018-04-19T05:02:35.353Z,68.33
2018-04-19T05:03:15.750Z,67.85
2018-04-19T05:03:56.127Z,67.6
2018-04-19T05:04:36.592Z,66.64
2018-04-19T05:05:16.951Z,65.49
2018-04-19T05:05:57.370Z,65.23
2018-04-19T05:06:37.763Z,64.37
2018-04-19T05:07:18.150Z,63.99
2018-04-19T05:07:58.554Z,63.22
2018-04-19T05:08:39.074Z,62.77
2018-04-19T05:09:19.357Z,62.59
2018-04-19T05:09:59.823Z,62.68
2018-04-19T05:10:40.185Z,61.72
2018-04-19T05:11:20.539Z,61.53
2018-04-19T05:12:00.984Z,61.27
2018-04-19T05:12:41.345Z,60.99
2018-04-19T05:13:21.753Z,60.89
2018-04-19T05:14:02.155Z,60.5
2018-04-19T05:14:42.528Z,60.15
2018-04-19T05:15:22.934Z,59.38
2018-04-19T05:16:04.332Z,58.81
2018-04-19T05:16:43.840Z,58.71
2018-04-19T05:17:24.227Z,57.56
2018-04-19T05:18:04.610Z,57.97
2018-04-19T05:18:45.150Z,57.4
2018-04-19T05:19:25.589Z,57.4
2018-04-19T05:20:05.969Z,56.66
2018-04-19T05:20:46.362Z,56.37
2018-04-19T05:21:26.843Z,55.69
2018-04-19T05:22:07.189Z,54.86
2018-04-19T05:22:47.610Z,54.67
2018-04-19T05:23:28.007Z,53.7
2018-04-19T05:24:08.361Z,53.64
2018-04-19T05:24:48.769Z,52.97
2018-04-19T05:25:29.239Z,52.12
2018-04-19T05:26:09.633Z,51.35
2018-04-19T05:26:50.071Z,51.74
2018-04-19T05:27:30.817Z,50.61
2018-04-19T05:28:11.197Z,50.13
2018-04-19T05:28:51.623Z,50.23
2018-04-19T05:29:32.046Z,49.58
2018-04-19T05:30:12.410Z,49.58
2018-04-19T05:30:52.818Z,48.9
2018-04-19T05:31:33.206Z,48.52
2018-04-19T05:32:13.659Z,48.25
2018-04-19T05:32:54.051Z,47.19
2018-04-19T05:33:34.604Z,47.1
2018-04-19T05:34:15.448Z,46.64
2018-04-19T05:34:56.007Z,46.73
2018-04-19T05:35:36.321Z,45.6
2018-04-19T05:36:16.724Z,45.79
2018-04-19T05:36:57.115Z,45.31
2018-04-19T05:37:37.514Z,44.56
2018-04-19T05:38:17.946Z,44.56
2018-04-19T05:38:58.581Z,44.18
2018-04-19T05:39:38.928Z,43.62
2018-04-19T05:40:19.459Z,43.33
2018-04-19T05:40:59.848Z,42.94
2018-04-19T05:41:40.256Z,42.94
2018-04-19T05:42:20.791Z,42.68
2018-04-19T05:43:01.257Z,42.29
2018-04-19T05:43:41.668Z,41.81
2018-04-19T05:44:22.091Z,41.61
2018-04-19T05:45:02.507Z,41.63
2018-04-19T05:45:43.042Z,41.73
2018-04-19T05:46:25.720Z,41.15
2018-04-19T05:47:08.921Z,40.38
2018-04-19T05:47:49.359Z,40.47
2018-04-19T05:48:29.924Z,40.3
2018-04-19T05:49:10.356Z,39.82
2018-04-19T05:49:50.667Z,39.62
2018-04-19T05:50:31.107Z,39.43
2018-04-19T05:51:12.271Z,39.43
2018-04-19T05:51:52.948Z,39.62
2018-04-19T05:52:33.105Z,39.34
2018-04-19T05:53:13.654Z,39.24
2018-04-19T05:53:54.259Z,39.24
2018-04-19T05:54:34.465Z,39.16
2018-04-19T05:55:14.903Z,39.16
2018-04-19T05:55:55.334Z,38.68
2018-04-19T05:56:35.916Z,38.39
2018-04-19T05:57:16.478Z,38.87
2018-04-19T05:57:56.874Z,38.39
2018-04-19T05:58:37.553Z,38.5
2018-04-19T05:59:18.075Z,38.48
2018-04-19T05:59:58.586Z,38.97
2018-04-19T06:00:38.829Z,38.78
2018-04-19T06:01:19.299Z,38.87
2018-04-19T06:03:17.360Z,39.26
2018-04-19T06:03:58.403Z,39.16
2018-04-19T06:04:38.768Z,39.53
2018-04-19T06:05:19.220Z,39.43
2018-04-19T06:05:59.589Z,39.62
2018-04-19T06:06:40.009Z,39.72
2018-04-19T06:07:20.431Z,39.82
2018-04-19T06:08:00.807Z,40.2
2018-04-19T06:08:41.388Z,40.2
2018-04-19T06:09:21.846Z,40.2
2018-04-19T06:10:02.226Z,40.38
2018-04-19T06:10:42.710Z,40.5
2018-04-19T06:11:23.141Z,40.86
2018-04-19T06:12:03.576Z,41.15
2018-04-19T06:12:43.963Z,41.25
2018-04-19T06:13:27.334Z,41.54
2018-04-19T06:14:07.811Z,41.63
2018-04-19T06:14:48.324Z,41.81
2018-04-19T06:15:28.545Z,41.91
2018-04-19T06:16:09.030Z,41.73
2018-04-19T06:16:49.408Z,41.63
2018-04-19T06:17:29.939Z,41.54
2018-04-19T06:18:10.379Z,41.63
2018-04-19T06:18:52.152Z,41.15
2018-04-19T06:19:32.389Z,40.78
2018-04-19T06:20:12.857Z,40.5
2018-04-19T06:20:53.234Z,40.2
2018-04-19T06:21:33.674Z,39.84
2018-04-19T06:22:14.064Z,39.84
2018-04-19T06:22:54.499Z,39.74
2018-04-19T06:23:34.952Z,39.45
2018-04-19T06:24:15.309Z,39.36
2018-04-19T06:24:56.043Z,39.84
2018-04-19T06:25:36.361Z,39.55
2018-04-19T06:26:16.794Z,38.99
2018-04-19T06:26:57.181Z,39.09
2018-04-19T06:27:37.757Z,38.89
2018-04-19T06:28:18.009Z,38.89
2018-04-19T06:28:58.492Z,38.89
2018-04-19T06:29:38.893Z,38.7
2018-04-19T06:31:34.691Z,38.89
2018-04-19T06:32:15.717Z,38.89
2018-04-19T06:32:56.307Z,38.87
2018-04-19T06:33:36.555Z,39.37
2018-04-19T06:34:16.989Z,38.48
2018-04-19T06:34:57.627Z,38.97
2018-04-19T06:35:38.849Z,39.74
2018-04-19T06:36:19.316Z,39.64
2018-04-19T06:37:00.036Z,39.72
2018-04-19T06:37:40.443Z,39.62
2018-04-19T06:38:20.911Z,39.36
2018-04-19T06:39:01.374Z,39.64
2018-04-19T06:39:41.734Z,39.45
2018-04-19T06:40:24.302Z,39.16
2018-04-19T06:41:19.295Z,38.87
2018-04-19T06:43:08.248Z,38.48
2018-04-19T06:43:48.648Z,38.39
2018-04-19T06:44:29.024Z,38.37
2018-04-19T06:45:09.533Z,39.62
2018-04-19T06:45:49.878Z,40.2
2018-04-19T06:46:30.743Z,40.4
2018-04-19T06:47:11.139Z,40.3
2018-04-19T06:47:51.598Z,40.4
2018-04-19T06:48:32.990Z,40.11
2018-04-19T06:49:13.377Z,40.2
2018-04-19T06:49:53.856Z,40.11
2018-04-19T06:50:34.848Z,40.4
2018-04-19T06:51:15.349Z,39.34
2018-04-19T06:51:55.786Z,39.43
2018-04-19T06:52:36.169Z,39.82
2018-04-19T06:53:16.597Z,40.3
2018-04-19T06:53:57.344Z,39.82
2018-04-19T06:54:37.518Z,39.74
2018-04-19T06:55:18.061Z,39.45
2018-04-19T06:55:58.967Z,39.16
2018-04-19T06:56:39.652Z,38.89
2018-04-19T06:57:20.000Z,38.68
2018-04-19T06:58:00.890Z,38.87
2018-04-19T06:58:41.174Z,38.78
2018-04-19T06:59:22.137Z,38.97
2018-04-19T07:00:02.555Z,39.14
2018-04-19T07:00:42.938Z,39.62
2018-04-19T07:01:23.452Z,40.4
2018-04-19T07:02:03.894Z,40.5
2018-04-19T07:02:44.986Z,40.3
2018-04-19T07:03:25.539Z,39.34
2018-04-19T07:04:05.827Z,39.34
2018-04-19T07:04:46.264Z,39.82
2018-04-19T07:05:26.927Z,39.53
2018-04-19T07:06:07.075Z,39.62
2018-04-19T07:08:37.453Z,38.78
2018-04-19T07:09:11.017Z,39.06
2018-04-19T07:09:51.768Z,38.29
2018-04-19T07:10:32.178Z,38.29
2018-04-19T07:11:12.779Z,37.81
2018-04-19T07:11:53.243Z,37.9
2018-04-19T07:12:33.764Z,38.1
2018-04-19T07:13:14.226Z,38.08
2018-04-19T07:13:54.508Z,38.39
2018-04-19T07:14:35.011Z,38.39
2018-04-19T07:15:15.463Z,38.2
2018-04-19T07:15:55.911Z,38.48
2018-04-19T07:16:36.468Z,39.04
2018-04-19T07:17:17.085Z,39.14
2018-04-19T07:17:57.712Z,38.58
2018-04-19T07:18:38.133Z,38.46
2018-04-19T07:19:18.676Z,37.81
2018-04-19T07:19:59.117Z,37.4
2018-04-19T07:20:39.582Z,37.98
2018-04-19T07:21:20.199Z,38.66
2018-04-19T07:22:00.564Z,38.66
2018-04-19T07:23:49.246Z,38.95
2018-04-19T07:24:29.452Z,38.46
2018-04-19T07:25:09.941Z,37.98
2018-04-19T07:25:51.208Z,38.18
2018-04-19T07:26:31.014Z,38.2
2018-04-19T07:27:11.403Z,37.81
2018-04-19T07:27:51.932Z,37.44
2018-04-19T07:28:32.350Z,37.44
2018-04-19T07:29:12.708Z,36.96
2018-04-19T07:29:53.183Z,36.28
2018-04-19T07:30:33.552Z,37.24
2018-04-19T07:31:14.152Z,37.24
2018-04-19T07:31:54.567Z,36.18
2018-04-19T07:32:35.074Z,36.38
2018-04-19T07:33:15.661Z,37.05
2018-04-19T07:33:56.053Z,37.34
2018-04-19T07:34:36.328Z,37.34
2018-04-19T07:35:16.771Z,35.89
2018-04-19T07:35:57.310Z,35.8
2018-04-19T07:36:37.999Z,35.33
2018-04-19T07:37:18.576Z,35.62
2018-04-19T07:38:00.085Z,35.54
2018-04-19T07:38:40.551Z,35.93
2018-04-19T07:39:21.026Z,35.15
2018-04-19T07:40:01.502Z,34.86
2018-04-19T07:40:41.899Z,34.19
2018-04-19T07:41:22.310Z,34.57
2018-04-19T07:42:02.797Z,35.25
2018-04-19T07:42:43.155Z,35.33
2018-04-19T07:43:23.538Z,35.13
2018-04-19T07:44:04.173Z,35.33
2018-04-19T07:44:44.748Z,35.33
2018-04-19T07:45:25.019Z,35.81
2018-04-19T07:46:05.502Z,35.44
2018-04-19T07:46:45.822Z,35.54
2018-04-19T07:47:26.678Z,35.25
2018-04-19T07:48:07.206Z,35.25
2018-04-19T07:48:47.803Z,35.15
2018-04-19T07:49:28.103Z,35.35
2018-04-19T07:50:08.556Z,35.56
2018-04-19T07:52:27.643Z,34.39
2018-04-19T07:53:09.784Z,34.47
2018-04-19T07:53:50.171Z,34.97
2018-04-19T07:54:30.615Z,34.78
2018-04-19T07:55:11.026Z,34.88
2018-04-19T07:55:52.767Z,34.97
2018-04-19T07:56:33.275Z,35.17
2018-04-19T07:57:13.833Z,34.59
2018-04-19T07:57:54.193Z,34.61
2018-04-19T07:58:38.171Z,34.12
2018-04-19T07:59:18.278Z,33.92
2018-04-19T07:59:58.660Z,33.06
2018-04-19T08:00:39.238Z,33.15
2018-04-19T08:01:19.673Z,33.25
2018-04-19T08:02:00.041Z,32.75
2018-04-19T08:02:41.421Z,32.84
2018-04-19T08:03:21.861Z,33.7
2018-04-19T08:04:02.279Z,34.19
2018-04-19T08:04:42.693Z,34.19
2018-04-19T08:05:23.703Z,33.99
2018-04-19T08:06:03.926Z,34.19
2018-04-19T08:06:46.351Z,34.19
2018-04-19T08:07:28.035Z,34.57
2018-04-19T08:08:08.473Z,33.7
2018-04-19T08:08:49.062Z,33.8
2018-04-19T08:09:29.380Z,33.8
2018-04-19T08:10:10.025Z,34.19
2018-04-19T08:10:50.378Z,34.19
2018-04-19T08:11:32.568Z,34.38
2018-04-19T08:12:13.804Z,34.28
2018-04-19T08:12:55.041Z,33.89
2018-04-19T08:13:35.385Z,33.41
2018-04-19T08:14:18.621Z,33.41
2018-04-19T08:14:59.026Z,34.19
2018-04-19T08:15:39.473Z,34.09
2018-04-19T08:16:23.817Z,33.91
2018-04-19T08:17:04.459Z,34.01
2018-04-19T08:17:45.539Z,32.96
2018-04-19T08:18:25.528Z,32.75
2018-04-19T08:19:05.943Z,32.76
2018-04-19T08:19:46.384Z,33.04
2018-04-19T08:20:28.595Z,33.14
2018-04-19T08:21:10.651Z,33.91
2018-04-19T08:21:52.102Z,32.94
2018-04-19T08:22:32.509Z,32.75
2018-04-19T08:23:14.580Z,33.42
2018-04-19T08:23:54.988Z,33.33
2018-04-19T08:24:40.189Z,32.94
2018-04-19T08:25:20.759Z,33.41
2018-04-19T08:26:01.364Z,33.51
2018-04-19T08:26:44.689Z,32.92
2018-04-19T08:27:28.609Z,32.64
2018-04-19T08:28:09.098Z,33.22
2018-04-19T08:28:51.478Z,32.17
2018-04-19T08:29:31.987Z,32.64
2018-04-19T08:30:14.397Z,32.82
2018-04-19T08:30:55.200Z,33.42
2018-04-19T08:31:35.923Z,33.51
2018-04-19T08:32:16.345Z,33.22
2018-04-19T08:32:58.520Z,34.09
2018-04-19T08:33:39.136Z,32.75
2018-04-19T08:34:23.646Z,33.14
2018-04-19T08:35:06.131Z,32.64
2018-04-19T08:35:45.691Z,33.42
2018-04-19T08:36:26.070Z,32.84
2018-04-19T08:37:06.706Z,33.04
2018-04-19T08:37:47.215Z,33.33
2018-04-19T08:38:27.546Z,32.94
2018-04-19T08:39:09.821Z,32.84
2018-04-19T08:39:50.252Z,33.04
2018-04-19T08:40:30.981Z,33.06
2018-04-19T08:41:12.048Z,33.25
2018-04-19T08:41:51.934Z,32.2
2018-04-19T08:42:32.329Z,32
2018-04-19T08:43:12.805Z,31.81
2018-04-19T08:43:53.191Z,32
2018-04-19T08:44:33.623Z,32.39
2018-04-19T08:45:13.985Z,32.21
2018-04-19T08:45:54.446Z,31.63
2018-04-19T08:46:35.039Z,31.44
2018-04-19T08:47:15.420Z,31.35
2018-04-19T08:47:55.812Z,30.97
2018-04-19T08:48:36.224Z,31.07
2018-04-19T08:49:16.805Z,31.05
2018-04-19T08:49:57.191Z,31.34
2018-04-19T08:50:37.619Z,30.77
2018-04-19T08:51:20.258Z,30.58
2018-04-19T08:52:02.334Z,30.29
2018-04-19T08:52:43.568Z,30.19
2018-04-19T08:53:25.137Z,29.8
2018-04-19T08:54:06.386Z,30.87
2018-04-19T08:54:46.908Z,31.08
2018-04-19T08:55:27.327Z,31.18
2018-04-19T08:56:07.845Z,30.71
2018-04-19T08:56:48.250Z,30.22
2018-04-19T08:57:28.810Z,29.93
2018-04-19T08:58:09.413Z,29.64
2018-04-19T08:58:49.712Z,29.93
2018-04-19T08:59:30.163Z,29.83
2018-04-19T09:00:10.578Z,29.83
2018-04-19T09:00:51.024Z,29.36
2018-04-19T09:01:31.975Z,29.36
2018-04-19T09:03:19.267Z,27.82
2018-04-19T09:03:59.701Z,28.09
2018-04-19T09:04:40.222Z,29.06
2018-04-19T09:05:20.575Z,29.46
2018-04-19T09:06:01.031Z,29.55
2018-04-19T09:06:41.648Z,29.85
2018-04-19T09:07:22.564Z,29.55
2018-04-19T09:08:02.659Z,29.16
2018-04-19T09:08:43.245Z,29.06
2018-04-19T09:09:23.480Z,29.65
2018-04-19T09:10:03.893Z,29.57
2018-04-19T09:10:44.332Z,29.66
2018-04-19T09:11:25.397Z,29.28
2018-04-19T09:12:05.290Z,29.18
2018-04-19T09:12:45.781Z,29.06
2018-04-19T09:13:26.543Z,28.97
2018-04-19T09:14:06.961Z,29.46
2018-04-19T09:14:47.338Z,29.36
2018-04-19T09:15:27.968Z,29.65
2018-04-19T09:16:08.786Z,29.55
2018-04-19T09:16:49.093Z,29.18
2018-04-19T09:17:29.519Z,28.59
2018-04-19T09:18:09.950Z,28.22
2018-04-19T09:18:51.304Z,28.03
2018-04-19T09:19:31.769Z,28.03
2018-04-19T09:20:12.290Z,28.51
2018-04-19T09:20:52.970Z,27.93
2018-04-19T09:21:33.326Z,27.54
2018-04-19T09:22:13.815Z,27.75
2018-04-19T09:22:54.361Z,27.65
2018-04-19T09:23:35.422Z,27.73
2018-04-19T09:24:15.797Z,28.32
2018-04-19T09:24:56.386Z,28.32
2018-04-19T09:25:36.860Z,28.03
2018-04-19T09:26:18.067Z,28.22
2018-04-19T09:26:57.865Z,27.05
2018-04-19T09:27:38.423Z,27.06
2018-04-19T09:28:18.810Z,26.19
2018-04-19T09:28:59.223Z,26.18
2018-04-19T09:29:39.617Z,26.95
2018-04-19T09:30:20.327Z,27.54
2018-04-19T09:31:00.763Z,27.34
2018-04-19T09:31:41.841Z,25.98
2018-04-19T09:32:22.437Z,25.02
2018-04-19T09:33:02.874Z,25.59
2018-04-19T09:33:43.412Z,25.98
2018-04-19T09:34:24.150Z,26.29